sensor_id;sensor_type;location;lat;lon;timestamp;P1;durP1;ratioP1;P2;durP2;ratioP2
27275;SDS011;14772;47.398;8.080;2022-08-23T00:01:07;10.90;;;4.17;;
27275;SDS011;14772;47.398;8.080;2022-08-23T00:06:06;10.20;;;3.90;;
27275;SDS011;14772;47.398;8.080;2022-08-23T00:11:03;10.83;;;4.40;;
27275;SDS011;14772;47.398;8.080;2022-08-23T00:16:02;11.70;;;4.30;;
27275;SDS011;14772;47.398;8.080;2022-08-23T00:21:00;13.27;;;4.30;;
27275;SDS011;14772;47.398;8.080;2022-08-23T00:25:59;10.83;;;4.37;;
27275;SDS011;14772;47.398;8.080;2022-08-23T00:30:56;11.60;;;4.70;;
27275;SDS011;14772;47.398;8.080;2022-08-23T00:35:54;11.30;;;4.13;;
27275;SDS011;14772;47.398;8.080;2022-08-23T00:40:52;11.37;;;4.40;;
27275;SDS011;14772;47.398;8.080;2022-08-23T00:45:51;11.63;;;4.63;;
27275;SDS011;14772;47.398;8.080;2022-08-23T00:50:55;11.73;;;4.37;;
27275;SDS011;14772;47.398;8.080;2022-08-23T00:55:53;11.60;;;4.60;;
27275;SDS011;14772;47.398;8.080;2022-08-23T01:00:52;15.40;;;4.73;;
27275;SDS011;14772;47.398;8.080;2022-08-23T01:05:53;11.23;;;4.43;;
27275;SDS011;14772;47.398;8.080;2022-08-23T01:10:54;10.97;;;4.53;;
27275;SDS011;14772;47.398;8.080;2022-08-23T01:15:54;12.47;;;4.40;;
27275;SDS011;14772;47.398;8.080;2022-08-23T01:20:55;11.80;;;4.33;;
27275;SDS011;14772;47.398;8.080;2022-08-23T01:26:03;12.50;;;4.40;;
27275;SDS011;14772;47.398;8.080;2022-08-23T01:31:01;13.73;;;4.80;;
27275;SDS011;14772;47.398;8.080;2022-08-23T01:35:59;11.30;;;4.90;;
27275;SDS011;14772;47.398;8.080;2022-08-23T01:40:57;11.10;;;4.40;;
27275;SDS011;14772;47.398;8.080;2022-08-23T01:45:54;12.00;;;4.87;;
27275;SDS011;14772;47.398;8.080;2022-08-23T01:50:51;11.40;;;4.60;;
27275;SDS011;14772;47.398;8.080;2022-08-23T01:55:48;13.23;;;4.80;;
27275;SDS011;14772;47.398;8.080;2022-08-23T02:00:45;13.07;;;4.97;;
27275;SDS011;14772;47.398;8.080;2022-08-23T02:05:43;11.33;;;4.73;;
27275;SDS011;14772;47.398;8.080;2022-08-23T02:10:40;12.57;;;5.20;;
27275;SDS011;14772;47.398;8.080;2022-08-23T02:15:37;13.77;;;5.23;;
27275;SDS011;14772;47.398;8.080;2022-08-23T02:20:36;11.57;;;5.10;;
27275;SDS011;14772;47.398;8.080;2022-08-23T02:25:33;12.10;;;4.90;;
27275;SDS011;14772;47.398;8.080;2022-08-23T02:30:31;11.70;;;4.57;;
27275;SDS011;14772;47.398;8.080;2022-08-23T02:35:28;11.70;;;4.53;;
27275;SDS011;14772;47.398;8.080;2022-08-23T02:40:25;12.03;;;5.03;;
27275;SDS011;14772;47.398;8.080;2022-08-23T02:45:23;12.87;;;4.97;;
27275;SDS011;14772;47.398;8.080;2022-08-23T02:50:20;14.63;;;4.93;;
27275;SDS011;14772;47.398;8.080;2022-08-23T02:55:18;12.63;;;4.80;;
27275;SDS011;14772;47.398;8.080;2022-08-23T03:00:16;13.93;;;5.57;;
27275;SDS011;14772;47.398;8.080;2022-08-23T03:05:14;12.40;;;4.90;;
27275;SDS011;14772;47.398;8.080;2022-08-23T03:10:12;12.37;;;5.00;;
27275;SDS011;14772;47.398;8.080;2022-08-23T03:15:10;14.60;;;5.33;;
27275;SDS011;14772;47.398;8.080;2022-08-23T03:20:09;12.80;;;4.90;;
27275;SDS011;14772;47.398;8.080;2022-08-23T03:25:07;12.73;;;4.70;;
27275;SDS011;14772;47.398;8.080;2022-08-23T03:30:05;12.80;;;5.10;;
27275;SDS011;14772;47.398;8.080;2022-08-23T03:35:04;13.10;;;5.30;;
27275;SDS011;14772;47.398;8.080;2022-08-23T03:40:03;12.10;;;5.40;;
27275;SDS011;14772;47.398;8.080;2022-08-23T03:45:01;12.70;;;5.53;;
27275;SDS011;14772;47.398;8.080;2022-08-23T03:49:58;11.87;;;5.43;;
27275;SDS011;14772;47.398;8.080;2022-08-23T03:54:55;12.23;;;5.57;;
27275;SDS011;14772;47.398;8.080;2022-08-23T03:59:53;12.73;;;5.90;;
27275;SDS011;14772;47.398;8.080;2022-08-23T04:04:50;12.10;;;5.33;;
27275;SDS011;14772;47.398;8.080;2022-08-23T04:09:47;12.80;;;5.87;;
27275;SDS011;14772;47.398;8.080;2022-08-23T04:14:44;13.30;;;5.87;;
27275;SDS011;14772;47.398;8.080;2022-08-23T04:19:41;18.37;;;6.33;;
27275;SDS011;14772;47.398;8.080;2022-08-23T04:24:39;12.97;;;6.00;;
27275;SDS011;14772;47.398;8.080;2022-08-23T04:29:36;14.30;;;5.73;;
27275;SDS011;14772;47.398;8.080;2022-08-23T04:34:34;13.77;;;6.70;;
27275;SDS011;14772;47.398;8.080;2022-08-23T04:39:32;14.23;;;6.10;;
27275;SDS011;14772;47.398;8.080;2022-08-23T04:44:31;15.33;;;7.97;;
27275;SDS011;14772;47.398;8.080;2022-08-23T04:49:30;14.90;;;8.10;;
27275;SDS011;14772;47.398;8.080;2022-08-23T04:54:29;13.40;;;6.83;;
27275;SDS011;14772;47.398;8.080;2022-08-23T04:59:28;15.70;;;6.13;;
27275;SDS011;14772;47.398;8.080;2022-08-23T05:04:27;12.70;;;7.20;;
27275;SDS011;14772;47.398;8.080;2022-08-23T05:09:27;13.60;;;6.90;;
27275;SDS011;14772;47.398;8.080;2022-08-23T05:14:26;17.17;;;6.80;;
27275;SDS011;14772;47.398;8.080;2022-08-23T05:19:26;14.13;;;6.07;;
27275;SDS011;14772;47.398;8.080;2022-08-23T05:24:25;14.05;;;6.47;;
27275;SDS011;14772;47.398;8.080;2022-08-23T05:29:24;17.57;;;6.90;;
27275;SDS011;14772;47.398;8.080;2022-08-23T05:34:23;17.93;;;6.83;;
27275;SDS011;14772;47.398;8.080;2022-08-23T05:39:22;15.87;;;6.27;;
27275;SDS011;14772;47.398;8.080;2022-08-23T05:44:22;14.20;;;6.50;;
27275;SDS011;14772;47.398;8.080;2022-08-23T05:49:21;14.07;;;6.80;;
27275;SDS011;14772;47.398;8.080;2022-08-23T05:54:20;13.90;;;5.80;;
27275;SDS011;14772;47.398;8.080;2022-08-23T05:59:19;14.07;;;5.63;;
27275;SDS011;14772;47.398;8.080;2022-08-23T06:04:18;14.97;;;6.00;;
27275;SDS011;14772;47.398;8.080;2022-08-23T06:09:17;15.10;;;5.87;;
27275;SDS011;14772;47.398;8.080;2022-08-23T06:14:16;16.33;;;6.20;;
27275;SDS011;14772;47.398;8.080;2022-08-23T06:19:15;15.37;;;6.70;;
27275;SDS011;14772;47.398;8.080;2022-08-23T06:24:14;15.47;;;7.10;;
27275;SDS011;14772;47.398;8.080;2022-08-23T06:29:18;13.13;;;6.70;;
27275;SDS011;14772;47.398;8.080;2022-08-23T06:34:18;17.60;;;6.83;;
27275;SDS011;14772;47.398;8.080;2022-08-23T06:39:20;17.90;;;6.97;;
27275;SDS011;14772;47.398;8.080;2022-08-23T06:44:21;19.70;;;6.77;;
27275;SDS011;14772;47.398;8.080;2022-08-23T06:49:20;15.07;;;6.23;;
27275;SDS011;14772;47.398;8.080;2022-08-23T06:54:21;14.07;;;6.33;;
27275;SDS011;14772;47.398;8.080;2022-08-23T06:59:21;14.67;;;7.07;;
27275;SDS011;14772;47.398;8.080;2022-08-23T07:04:21;16.20;;;6.43;;
27275;SDS011;14772;47.398;8.080;2022-08-23T07:09:22;14.60;;;6.20;;
27275;SDS011;14772;47.398;8.080;2022-08-23T07:14:22;12.90;;;5.90;;
27275;SDS011;14772;47.398;8.080;2022-08-23T07:19:23;14.70;;;6.33;;
27275;SDS011;14772;47.398;8.080;2022-08-23T07:24:24;14.93;;;6.30;;
27275;SDS011;14772;47.398;8.080;2022-08-23T07:29:24;16.97;;;6.03;;
27275;SDS011;14772;47.398;8.080;2022-08-23T07:34:24;12.93;;;6.10;;
27275;SDS011;14772;47.398;8.080;2022-08-23T07:39:23;16.27;;;6.40;;
27275;SDS011;14772;47.398;8.080;2022-08-23T07:44:22;12.70;;;5.53;;
27275;SDS011;14772;47.398;8.080;2022-08-23T07:49:21;13.67;;;5.50;;
27275;SDS011;14772;47.398;8.080;2022-08-23T07:54:20;15.93;;;5.80;;
27275;SDS011;14772;47.398;8.080;2022-08-23T07:59:19;13.03;;;5.70;;
27275;SDS011;14772;47.398;8.080;2022-08-23T08:04:18;14.50;;;6.20;;
27275;SDS011;14772;47.398;8.080;2022-08-23T08:09:17;13.87;;;5.93;;
27275;SDS011;14772;47.398;8.080;2022-08-23T08:14:17;13.37;;;5.83;;
27275;SDS011;14772;47.398;8.080;2022-08-23T08:19:16;12.60;;;5.57;;
27275;SDS011;14772;47.398;8.080;2022-08-23T08:24:16;12.33;;;5.80;;
27275;SDS011;14772;47.398;8.080;2022-08-23T08:29:23;13.97;;;5.47;;
27275;SDS011;14772;47.398;8.080;2022-08-23T08:34:22;12.03;;;5.50;;
27275;SDS011;14772;47.398;8.080;2022-08-23T08:39:22;13.70;;;5.53;;
27275;SDS011;14772;47.398;8.080;2022-08-23T08:44:26;12.73;;;5.80;;
27275;SDS011;14772;47.398;8.080;2022-08-23T08:49:32;15.63;;;5.13;;
27275;SDS011;14772;47.398;8.080;2022-08-23T08:54:34;12.93;;;5.30;;
27275;SDS011;14772;47.398;8.080;2022-08-23T08:59:38;11.30;;;4.43;;
27275;SDS011;14772;47.398;8.080;2022-08-23T09:04:40;12.33;;;5.07;;
27275;SDS011;14772;47.398;8.080;2022-08-23T09:09:45;11.93;;;4.83;;
27275;SDS011;14772;47.398;8.080;2022-08-23T09:14:56;12.77;;;5.10;;
27275;SDS011;14772;47.398;8.080;2022-08-23T09:19:59;13.37;;;4.90;;
27275;SDS011;14772;47.398;8.080;2022-08-23T09:25:01;14.57;;;5.20;;
27275;SDS011;14772;47.398;8.080;2022-08-23T09:30:00;12.53;;;4.77;;
27275;SDS011;14772;47.398;8.080;2022-08-23T09:35:07;12.67;;;4.80;;
27275;SDS011;14772;47.398;8.080;2022-08-23T09:40:14;13.87;;;4.77;;
27275;SDS011;14772;47.398;8.080;2022-08-23T09:45:25;13.93;;;4.80;;
27275;SDS011;14772;47.398;8.080;2022-08-23T09:50:27;11.63;;;4.43;;
27275;SDS011;14772;47.398;8.080;2022-08-23T09:55:29;13.17;;;4.63;;
27275;SDS011;14772;47.398;8.080;2022-08-23T10:00:32;11.10;;;4.03;;
27275;SDS011;14772;47.398;8.080;2022-08-23T10:05:35;11.73;;;4.33;;
27275;SDS011;14772;47.398;8.080;2022-08-23T10:10:38;10.80;;;4.30;;
27275;SDS011;14772;47.398;8.080;2022-08-23T10:15:56;10.80;;;4.27;;
27275;SDS011;14772;47.398;8.080;2022-08-23T10:21:00;12.07;;;4.23;;
27275;SDS011;14772;47.398;8.080;2022-08-23T10:26:01;10.57;;;3.93;;
27275;SDS011;14772;47.398;8.080;2022-08-23T10:31:03;10.93;;;4.17;;
27275;SDS011;14772;47.398;8.080;2022-08-23T10:36:08;10.47;;;3.90;;
27275;SDS011;14772;47.398;8.080;2022-08-23T10:46:34;10.03;;;3.57;;
27275;SDS011;14772;47.398;8.080;2022-08-23T10:51:36;9.17;;;3.60;;
27275;SDS011;14772;47.398;8.080;2022-08-23T10:56:39;11.13;;;4.10;;
27275;SDS011;14772;47.398;8.080;2022-08-23T11:01:39;10.53;;;3.83;;
27275;SDS011;14772;47.398;8.080;2022-08-23T11:06:46;9.77;;;3.70;;
27275;SDS011;14772;47.398;8.080;2022-08-23T11:11:49;11.57;;;3.87;;
27275;SDS011;14772;47.398;8.080;2022-08-23T11:17:00;11.17;;;3.90;;
27275;SDS011;14772;47.398;8.080;2022-08-23T11:22:12;9.57;;;3.67;;
27275;SDS011;14772;47.398;8.080;2022-08-23T11:27:17;10.13;;;3.50;;
27275;SDS011;14772;47.398;8.080;2022-08-23T11:32:34;10.63;;;3.40;;
27275;SDS011;14772;47.398;8.080;2022-08-23T11:37:52;11.33;;;3.30;;
27275;SDS011;14772;47.398;8.080;2022-08-23T11:42:54;11.50;;;3.20;;
27275;SDS011;14772;47.398;8.080;2022-08-23T11:48:11;8.27;;;2.90;;
27275;SDS011;14772;47.398;8.080;2022-08-23T11:53:16;9.07;;;2.93;;
27275;SDS011;14772;47.398;8.080;2022-08-23T11:58:21;9.97;;;2.90;;
27275;SDS011;14772;47.398;8.080;2022-08-23T12:03:24;11.40;;;3.30;;
27275;SDS011;14772;47.398;8.080;2022-08-23T12:08:28;7.80;;;3.03;;
27275;SDS011;14772;47.398;8.080;2022-08-23T12:13:45;8.83;;;3.07;;
27275;SDS011;14772;47.398;8.080;2022-08-23T12:18:51;8.97;;;3.00;;
27275;SDS011;14772;47.398;8.080;2022-08-23T12:23:52;8.47;;;2.80;;
27275;SDS011;14772;47.398;8.080;2022-08-23T12:28:55;9.40;;;2.90;;
27275;SDS011;14772;47.398;8.080;2022-08-23T12:39:30;7.60;;;2.50;;
27275;SDS011;14772;47.398;8.080;2022-08-23T12:44:31;8.70;;;2.60;;
27275;SDS011;14772;47.398;8.080;2022-08-23T12:49:31;8.27;;;2.60;;
27275;SDS011;14772;47.398;8.080;2022-08-23T12:54:33;7.93;;;2.77;;
27275;SDS011;14772;47.398;8.080;2022-08-23T12:59:36;7.33;;;2.60;;
27275;SDS011;14772;47.398;8.080;2022-08-23T13:04:38;10.73;;;2.80;;
27275;SDS011;14772;47.398;8.080;2022-08-23T13:09:40;9.03;;;3.10;;
27275;SDS011;14772;47.398;8.080;2022-08-23T13:14:42;7.57;;;2.60;;
27275;SDS011;14772;47.398;8.080;2022-08-23T13:19:42;9.00;;;2.87;;
27275;SDS011;14772;47.398;8.080;2022-08-23T13:24:44;7.57;;;2.80;;
27275;SDS011;14772;47.398;8.080;2022-08-23T13:29:52;7.60;;;2.73;;
27275;SDS011;14772;47.398;8.080;2022-08-23T13:34:53;10.17;;;2.90;;
27275;SDS011;14772;47.398;8.080;2022-08-23T13:39:55;8.30;;;2.80;;
27275;SDS011;14772;47.398;8.080;2022-08-23T13:44:56;7.20;;;2.70;;
27275;SDS011;14772;47.398;8.080;2022-08-23T13:49:57;9.00;;;2.93;;
27275;SDS011;14772;47.398;8.080;2022-08-23T13:54:58;10.10;;;2.93;;
27275;SDS011;14772;47.398;8.080;2022-08-23T13:59:57;9.10;;;2.80;;
27275;SDS011;14772;47.398;8.080;2022-08-23T14:04:56;7.23;;;2.47;;
27275;SDS011;14772;47.398;8.080;2022-08-23T14:09:58;8.67;;;2.80;;
27275;SDS011;14772;47.398;8.080;2022-08-23T14:14:57;8.20;;;2.80;;
27275;SDS011;14772;47.398;8.080;2022-08-23T14:19:59;7.90;;;2.60;;
27275;SDS011;14772;47.398;8.080;2022-08-23T14:24:58;11.23;;;2.93;;
27275;SDS011;14772;47.398;8.080;2022-08-23T14:29:57;9.77;;;2.80;;
27275;SDS011;14772;47.398;8.080;2022-08-23T14:34:57;7.77;;;2.70;;
27275;SDS011;14772;47.398;8.080;2022-08-23T14:39:56;9.60;;;2.83;;
27275;SDS011;14772;47.398;8.080;2022-08-23T14:44:55;7.57;;;2.70;;
27275;SDS011;14772;47.398;8.080;2022-08-23T14:49:54;8.93;;;2.83;;
27275;SDS011;14772;47.398;8.080;2022-08-23T14:54:53;11.13;;;2.73;;
27275;SDS011;14772;47.398;8.080;2022-08-23T14:59:52;9.00;;;2.70;;
27275;SDS011;14772;47.398;8.080;2022-08-23T15:04:51;8.10;;;2.67;;
27275;SDS011;14772;47.398;8.080;2022-08-23T15:09:51;7.13;;;2.90;;
27275;SDS011;14772;47.398;8.080;2022-08-23T15:14:51;6.37;;;2.53;;
27275;SDS011;14772;47.398;8.080;2022-08-23T15:19:50;8.27;;;2.67;;
27275;SDS011;14772;47.398;8.080;2022-08-23T15:24:49;8.53;;;2.57;;
27275;SDS011;14772;47.398;8.080;2022-08-23T15:29:48;8.43;;;2.90;;
27275;SDS011;14772;47.398;8.080;2022-08-23T15:34:47;7.17;;;2.70;;
27275;SDS011;14772;47.398;8.080;2022-08-23T15:39:46;6.60;;;2.37;;
27275;SDS011;14772;47.398;8.080;2022-08-23T15:44:46;7.93;;;2.60;;
27275;SDS011;14772;47.398;8.080;2022-08-23T15:49:45;8.73;;;2.80;;
27275;SDS011;14772;47.398;8.080;2022-08-23T15:54:44;11.43;;;3.83;;
27275;SDS011;14772;47.398;8.080;2022-08-23T15:59:44;11.00;;;3.30;;
27275;SDS011;14772;47.398;8.080;2022-08-23T16:04:43;8.90;;;2.70;;
27275;SDS011;14772;47.398;8.080;2022-08-23T16:09:43;10.07;;;3.13;;
27275;SDS011;14772;47.398;8.080;2022-08-23T16:14:42;12.73;;;4.70;;
27275;SDS011;14772;47.398;8.080;2022-08-23T16:19:41;8.37;;;2.57;;
27275;SDS011;14772;47.398;8.080;2022-08-23T16:24:40;6.57;;;2.20;;
27275;SDS011;14772;47.398;8.080;2022-08-23T16:29:40;7.73;;;2.60;;
27275;SDS011;14772;47.398;8.080;2022-08-23T16:34:39;8.20;;;2.40;;
27275;SDS011;14772;47.398;8.080;2022-08-23T16:39:38;7.73;;;2.70;;
27275;SDS011;14772;47.398;8.080;2022-08-23T16:44:37;8.90;;;2.57;;
27275;SDS011;14772;47.398;8.080;2022-08-23T16:49:36;6.47;;;2.50;;
27275;SDS011;14772;47.398;8.080;2022-08-23T16:54:35;9.90;;;2.80;;
27275;SDS011;14772;47.398;8.080;2022-08-23T16:59:34;10.40;;;3.83;;
27275;SDS011;14772;47.398;8.080;2022-08-23T17:04:33;11.70;;;4.63;;
27275;SDS011;14772;47.398;8.080;2022-08-23T17:09:32;10.30;;;2.70;;
27275;SDS011;14772;47.398;8.080;2022-08-23T17:14:31;8.97;;;2.80;;
27275;SDS011;14772;47.398;8.080;2022-08-23T17:19:30;9.33;;;2.73;;
27275;SDS011;14772;47.398;8.080;2022-08-23T17:24:29;8.40;;;2.90;;
27275;SDS011;14772;47.398;8.080;2022-08-23T17:29:29;6.17;;;2.60;;
27275;SDS011;14772;47.398;8.080;2022-08-23T17:34:28;7.47;;;2.90;;
27275;SDS011;14772;47.398;8.080;2022-08-23T17:39:27;12.57;;;2.97;;
27275;SDS011;14772;47.398;8.080;2022-08-23T17:44:27;9.27;;;2.63;;
27275;SDS011;14772;47.398;8.080;2022-08-23T17:49:26;8.00;;;2.70;;
27275;SDS011;14772;47.398;8.080;2022-08-23T17:54:25;10.93;;;3.87;;
27275;SDS011;14772;47.398;8.080;2022-08-23T17:59:24;10.53;;;4.43;;
27275;SDS011;14772;47.398;8.080;2022-08-23T18:04:23;10.10;;;3.73;;
27275;SDS011;14772;47.398;8.080;2022-08-23T18:09:22;10.53;;;3.03;;
27275;SDS011;14772;47.398;8.080;2022-08-23T18:14:21;8.73;;;2.73;;
27275;SDS011;14772;47.398;8.080;2022-08-23T18:19:21;12.00;;;4.30;;
27275;SDS011;14772;47.398;8.080;2022-08-23T18:24:20;10.00;;;3.40;;
27275;SDS011;14772;47.398;8.080;2022-08-23T18:29:20;10.07;;;3.20;;
27275;SDS011;14772;47.398;8.080;2022-08-23T18:34:19;12.40;;;3.40;;
27275;SDS011;14772;47.398;8.080;2022-08-23T18:39:19;12.13;;;3.17;;
27275;SDS011;14772;47.398;8.080;2022-08-23T18:44:18;10.57;;;3.63;;
27275;SDS011;14772;47.398;8.080;2022-08-23T18:49:17;10.33;;;3.50;;
27275;SDS011;14772;47.398;8.080;2022-08-23T18:54:16;10.63;;;3.43;;
27275;SDS011;14772;47.398;8.080;2022-08-23T18:59:16;10.90;;;3.50;;
27275;SDS011;14772;47.398;8.080;2022-08-23T19:04:15;9.33;;;3.23;;
27275;SDS011;14772;47.398;8.080;2022-08-23T19:09:14;10.43;;;3.07;;
27275;SDS011;14772;47.398;8.080;2022-08-23T19:14:13;10.33;;;3.57;;
27275;SDS011;14772;47.398;8.080;2022-08-23T19:19:12;12.43;;;4.10;;
27275;SDS011;14772;47.398;8.080;2022-08-23T19:24:12;12.23;;;4.37;;
27275;SDS011;14772;47.398;8.080;2022-08-23T19:29:11;11.77;;;4.40;;
27275;SDS011;14772;47.398;8.080;2022-08-23T19:34:11;11.60;;;3.90;;
27275;SDS011;14772;47.398;8.080;2022-08-23T19:39:10;12.57;;;3.60;;
27275;SDS011;14772;47.398;8.080;2022-08-23T19:44:10;12.60;;;3.73;;
27275;SDS011;14772;47.398;8.080;2022-08-23T19:49:09;12.93;;;4.50;;
27275;SDS011;14772;47.398;8.080;2022-08-23T19:54:09;11.77;;;3.50;;
27275;SDS011;14772;47.398;8.080;2022-08-23T19:59:10;11.93;;;3.90;;
27275;SDS011;14772;47.398;8.080;2022-08-23T20:04:11;11.57;;;4.00;;
27275;SDS011;14772;47.398;8.080;2022-08-23T20:09:10;12.13;;;3.50;;
27275;SDS011;14772;47.398;8.080;2022-08-23T20:14:10;11.03;;;3.50;;
27275;SDS011;14772;47.398;8.080;2022-08-23T20:19:09;9.93;;;3.53;;
27275;SDS011;14772;47.398;8.080;2022-08-23T20:24:09;14.10;;;3.93;;
27275;SDS011;14772;47.398;8.080;2022-08-23T20:29:11;9.87;;;3.67;;
27275;SDS011;14772;47.398;8.080;2022-08-23T20:34:11;12.20;;;3.70;;
27275;SDS011;14772;47.398;8.080;2022-08-23T20:39:10;9.80;;;3.60;;
27275;SDS011;14772;47.398;8.080;2022-08-23T20:44:09;12.93;;;4.17;;
27275;SDS011;14772;47.398;8.080;2022-08-23T20:49:08;13.37;;;4.10;;
27275;SDS011;14772;47.398;8.080;2022-08-23T20:54:08;11.40;;;4.00;;
27275;SDS011;14772;47.398;8.080;2022-08-23T20:59:07;11.83;;;3.93;;
27275;SDS011;14772;47.398;8.080;2022-08-23T21:04:06;9.60;;;3.43;;
27275;SDS011;14772;47.398;8.080;2022-08-23T21:09:05;13.90;;;4.10;;
27275;SDS011;14772;47.398;8.080;2022-08-23T21:14:04;11.77;;;4.30;;
27275;SDS011;14772;47.398;8.080;2022-08-23T21:19:04;11.60;;;3.90;;
27275;SDS011;14772;47.398;8.080;2022-08-23T21:24:04;11.80;;;4.17;;
27275;SDS011;14772;47.398;8.080;2022-08-23T21:29:03;11.20;;;4.43;;
27275;SDS011;14772;47.398;8.080;2022-08-23T21:34:03;11.90;;;4.70;;
27275;SDS011;14772;47.398;8.080;2022-08-23T21:39:03;12.23;;;4.23;;
27275;SDS011;14772;47.398;8.080;2022-08-23T21:44:05;14.37;;;4.43;;
27275;SDS011;14772;47.398;8.080;2022-08-23T21:49:11;11.50;;;4.60;;
27275;SDS011;14772;47.398;8.080;2022-08-23T21:54:11;10.20;;;3.87;;
27275;SDS011;14772;47.398;8.080;2022-08-23T21:59:13;12.40;;;4.20;;
27275;SDS011;14772;47.398;8.080;2022-08-23T22:04:13;13.43;;;4.47;;
27275;SDS011;14772;47.398;8.080;2022-08-23T22:09:14;11.63;;;4.20;;
27275;SDS011;14772;47.398;8.080;2022-08-23T22:14:15;11.73;;;4.60;;
27275;SDS011;14772;47.398;8.080;2022-08-23T22:19:16;11.87;;;4.13;;
27275;SDS011;14772;47.398;8.080;2022-08-23T22:24:16;11.53;;;4.20;;
27275;SDS011;14772;47.398;8.080;2022-08-23T22:29:16;11.27;;;4.37;;
27275;SDS011;14772;47.398;8.080;2022-08-23T22:34:15;12.63;;;4.57;;
27275;SDS011;14772;47.398;8.080;2022-08-23T22:39:14;11.23;;;4.30;;
27275;SDS011;14772;47.398;8.080;2022-08-23T22:44:13;13.20;;;4.67;;
27275;SDS011;14772;47.398;8.080;2022-08-23T22:49:13;11.37;;;4.73;;
27275;SDS011;14772;47.398;8.080;2022-08-23T22:54:12;12.37;;;4.40;;
27275;SDS011;14772;47.398;8.080;2022-08-23T22:59:11;12.00;;;4.40;;
27275;SDS011;14772;47.398;8.080;2022-08-23T23:04:11;10.33;;;4.30;;
27275;SDS011;14772;47.398;8.080;2022-08-23T23:09:19;11.03;;;4.30;;
27275;SDS011;14772;47.398;8.080;2022-08-23T23:14:19;13.00;;;4.60;;
27275;SDS011;14772;47.398;8.080;2022-08-23T23:19:19;11.73;;;4.70;;
27275;SDS011;14772;47.398;8.080;2022-08-23T23:24:20;11.47;;;4.43;;
27275;SDS011;14772;47.398;8.080;2022-08-23T23:29:21;12.33;;;4.60;;
27275;SDS011;14772;47.398;8.080;2022-08-23T23:34:20;14.33;;;4.80;;
27275;SDS011;14772;47.398;8.080;2022-08-23T23:39:20;10.60;;;4.53;;
27275;SDS011;14772;47.398;8.080;2022-08-23T23:44:19;11.40;;;4.50;;
27275;SDS011;14772;47.398;8.080;2022-08-23T23:49:19;11.13;;;4.80;;
27275;SDS011;14772;47.398;8.080;2022-08-23T23:54:18;12.23;;;4.90;;
27275;SDS011;14772;47.398;8.080;2022-08-23T23:59:17;12.10;;;4.57;;
